Poughquag, NY

10:43 PM EDT on July 30, 2015 (GMT -0400)
West Mountain | | Change Station
CLOSE
Current Station
Personal Weather Station
Location: Poughquag, NY
Elevation: 807 ft
Nearby Weather Stations

Elev 807 ft 41.62 °N, 73.64 °W | Updated 12 minutes ago

Mostly Cloudy
Mostly Cloudy
73.1 °F
Feels Like 73.1 °F
N
0.0
Wind Variable Wind from North
Gusts 1.0 mph

Today
High -- | Low -- °F
--% Chance of Precip.
Yesterday
High -- | Low -- °F
Precip. -- in
5:46 AM 8:14 PM
Full, 100% visible
Pressure 29.81 in
Visibility 8.0 miles
Clouds Mostly Cloudy 7500 ft
Dew Point 72 °F
Humidity 97%
Rainfall 0.07 in
Snow Depth Not available.
UV 0 out of 12
Pollen 6.40 out of 12
Air Quality Not available.
Flu Activity Not available.
METAR KPOU 310153Z 00000KT 8SM BKN075 24/22 A2982 RMK AO2 SLP094 T02390222

More Conditions Fewer Conditions

Pressure 29.81 in
Visibility 8.0 miles
Clouds Mostly Cloudy 7500 ft
Dew Point 72 °F
Humidity 97%
Rainfall 0.07 in
Snow Depth Not available.
UV 0 out of 12
Pollen 6.40 out of 12
Air Quality Not available.
Flu Activity Not available.
METAR KPOU 310153Z 00000KT 8SM BKN075 24/22 A2982 RMK AO2 SLP094 T02390222

More Conditions Fewer Conditions

10-Day Weather Forecast

×

Almanac

Astronomy

Jul. 30, 2015 Rise Set
Actual Time
Civil Twilight
Nautical Twilight
Astronomical Twilight
Moon
Length of Visible Light
Length of Day
Tomorrow will be .
, % of the Moon is Illuminated

Today's Extremes

State Highs State Lows

Community

WunderPhotos

Upload Photos

1,842,589 photos uploaded!

WunderBlogs® & News

Nearby

Air Quality

  Air Quality AQ Index Pollutant
Not available.

Snow Depth

Station Depth Elevation

Earthquake Activity

City Distance Mag. Time & Date
Minimum magnitude displayed is 2.5.

Coastal Water Temperatures

Place Temperature

Stations

Nearby Weather Stations

Station Location Temp. Windchill Dew Point Humidity Wind Precip. Elev Updated Type